Dades meteomassalio
Diari Summary for Octubre 31, 2017 Units:  English    Metric   Both
« Previous Day
Next Day »
Diari Semanal Mensual Anual Personalitzat
  Maxima: Minima: Mijana:
Temperatura: TemperatureC °F 1.1 °F 9 °F
Rosada: DewpointC °F -1.1 °F 3.4 °F
Humitat: Humidity % 48 % 70 %
Velocitat del vent: WindSpeedKMH mph 0.0 mph 3.1 mph
Racha vent: WindSpeedGustKMH mph - -
Vent:- - SW
Pressio: PressurehPa in 1023.2 in -
Pluja: 0.0 in    
Historical Graphs
 
 
Tabular Data for Octubre 31, 2017
Time Temperature Dew Point Pressure Wind Wind Speed Wind Gust Humidity Rainfall Rate (Hourly) solar Conditions
TemperatureC °F DewpointC °F PressurehPa in Calm     Humidity % HourlyPrecipMM in SolarRadiationWatts/m^2 W/m2 Conditions
00:04 9.4 °F 3.6 °F 1024.3 in SSW 16.7 mph 16.7 mph 67 % 0.0 in 0.0 W/m2 CLR
00:09 9.4 °F 3.6 °F 1024.3 in SSE 16.7 mph 16.7 mph 67 % 0.0 in 0.0 W/m2 CLR
00:14 9.4 °F 3.8 °F 1024.3 in SSE 11.1 mph 11.1 mph 68 % 0.0 in 0.0 W/m2 CLR
00:19 9.4 °F 3.8 °F 1024.3 in SSE 9.7 mph 9.7 mph 68 % 0.0 in 0.0 W/m2 CLR
00:24 9.4 °F 4.1 °F 1024.3 in SSE 9.3 mph 9.3 mph 69 % 0.0 in 0.0 W/m2 CLR
00:29 9.4 °F 4.1 °F 1024.3 in Calm     69 % 0.0 in 0.0 W/m2 CLR
00:34 9.4 °F 4.2 °F 1024.3 in SSE 5.6 mph 5.6 mph 70 % 0.0 in 0.0 W/m2 CLR
00:39 10.0 °F 4.8 °F 1024.3 in SSE 8.0 mph 8.0 mph 70 % 0.0 in 0.0 W/m2 CLR
00:44 10.0 °F 5.0 °F 1024.6 in Calm     71 % 0.0 in 0.0 W/m2 CLR
00:49 10.0 °F 5.0 °F 1024.6 in Calm     71 % 0.0 in 0.0 W/m2 CLR
00:54 9.4 °F 4.4 °F 1024.6 in Calm     71 % 0.0 in 0.0 W/m2 CLR
00:59 9.4 °F 4.4 °F 1024.6 in Calm     71 % 0.0 in 0.0 W/m2 CLR
01:04 8.9 °F 3.9 °F 1024.6 in SSW 12.9 mph 12.9 mph 71 % 0.0 in 0.0 W/m2 CLR
01:09 7.8 °F 2.8 °F 1024.6 in Calm     71 % 0.0 in 0.0 W/m2 CLR
01:14 7.8 °F 2.8 °F 1024.3 in Calm     71 % 0.0 in 0.0 W/m2 CLR
01:19 7.2 °F 2.3 °F 1024.3 in Calm     71 % 0.0 in 0.0 W/m2 CLR
01:24 6.7 °F 2.0 °F 1024.3 in Calm     72 % 0.0 in 0.0 W/m2 CLR
01:34 6.1 °F 1.8 °F 1024.3 in South 11.1 mph 11.1 mph 74 % 0.0 in 0.0 W/m2 CLR
01:39 5.6 °F 1.3 °F 1024.3 in SSE 9.3 mph 9.3 mph 74 % 0.0 in 0.0 W/m2 CLR
01:44 5.6 °F 1.3 °F 1024.3 in South 6.4 mph 6.4 mph 74 % 0.0 in 0.0 W/m2 CLR
01:49 5.6 °F 1.4 °F 1024.3 in SSE 7.4 mph 7.4 mph 75 % 0.0 in 0.0 W/m2 CLR
01:54 5.0 °F 0.9 °F 1024.3 in Calm     75 % 0.0 in 0.0 W/m2 CLR
01:59 5.0 °F 0.7 °F 1024.6 in Calm     74 % 0.0 in 0.0 W/m2 CLR
02:04 5.0 °F 0.9 °F 1024.6 in Calm     75 % 0.0 in 0.0 W/m2 CLR
02:09 4.4 °F 0.4 °F 1024.6 in Calm     75 % 0.0 in 0.0 W/m2 CLR
02:19 4.4 °F 0.4 °F 1024.6 in Calm     75 % 0.0 in 0.0 W/m2 CLR
02:24 4.4 °F 0.4 °F 1024.6 in Calm     75 % 0.0 in 0.0 W/m2 CLR
02:29 4.4 °F 0.4 °F 1024.6 in Calm     75 % 0.0 in 0.0 W/m2 CLR
02:34 3.9 °F 0.1 °F 1024.3 in Calm     76 % 0.0 in 0.0 W/m2 CLR
02:40 3.9 °F 0.1 °F 1024.3 in SSE 8.0 mph 8.0 mph 76 % 0.0 in 0.0 W/m2 CLR
02:45 3.9 °F 0.2 °F 1024.3 in SSE 11.3 mph 11.3 mph 77 % 0.0 in 0.0 W/m2 CLR
02:50 3.3 °F -0.3 °F 1024.3 in SSE 16.7 mph 16.7 mph 77 % 0.0 in 0.0 W/m2 CLR
02:55 3.3 °F -0.3 °F 1024.3 in SSE 13.0 mph 13.0 mph 77 % 0.0 in 0.0 W/m2 CLR
03:00 3.3 °F -0.3 °F 1024.3 in SSE 11.1 mph 11.1 mph 77 % 0.0 in 0.0 W/m2 CLR
03:05 3.3 °F -0.3 °F 1024.3 in SSE 11.3 mph 11.3 mph 77 % 0.0 in 0.0 W/m2 CLR
03:10 3.3 °F -0.2 °F 1024.3 in SSE 16.7 mph 16.7 mph 78 % 0.0 in 0.0 W/m2 CLR
03:15 2.8 °F -0.5 °F 1024.3 in South 12.9 mph 12.9 mph 79 % 0.0 in 0.0 W/m2 CLR
03:20 2.8 °F -0.7 °F 1024.3 in SSE 9.7 mph 9.7 mph 78 % 0.0 in 0.0 W/m2 CLR
03:25 2.8 °F -0.5 °F 1024.3 in SSE 13.0 mph 13.0 mph 79 % 0.0 in 0.0 W/m2 CLR
03:30 2.8 °F -0.5 °F 1024.3 in South 11.3 mph 11.3 mph 79 % 0.0 in 0.0 W/m2 CLR
03:35 2.8 °F -0.3 °F 1023.9 in South 13.0 mph 13.0 mph 80 % 0.0 in 0.0 W/m2 CLR
03:40 2.8 °F -0.5 °F 1024.3 in SSE 14.8 mph 14.8 mph 79 % 0.0 in 0.0 W/m2 CLR
03:45 2.8 °F -0.7 °F 1024.3 in SE 9.3 mph 9.3 mph 78 % 0.0 in 0.0 W/m2 CLR
03:50 2.8 °F -0.7 °F 1024.3 in South 6.4 mph 6.4 mph 78 % 0.0 in 0.0 W/m2 CLR
03:55 2.8 °F -0.7 °F 1024.3 in SE 5.6 mph 5.6 mph 78 % 0.0 in 0.0 W/m2 CLR
04:00 2.8 °F -0.5 °F 1024.3 in SE 5.6 mph 5.6 mph 79 % 0.0 in 0.0 W/m2 CLR
04:05 2.8 °F -0.5 °F 1024.3 in SE 5.6 mph 5.6 mph 79 % 0.0 in 0.0 W/m2 CLR
04:10 2.8 °F -0.5 °F 1024.3 in SSE 6.4 mph 6.4 mph 79 % 0.0 in 0.0 W/m2 CLR
04:17 2.8 °F -0.3 °F 1024.3 in SE 7.4 mph 7.4 mph 80 % 0.0 in 0.0 W/m2 CLR
04:21 2.8 °F -0.2 °F 1024.3 in SSE 8.0 mph 8.0 mph 81 % 0.0 in 0.0 W/m2 CLR
04:24 2.8 °F -0.2 °F 1024.3 in SSE 8.0 mph 8.0 mph 81 % 0.0 in 0.0 W/m2 CLR
04:26 2.8 °F -0.2 °F 1024.3 in SSE 9.3 mph 9.3 mph 81 % 0.0 in 0.0 W/m2 CLR
04:27 2.8 °F -0.2 °F 1024.3 in SSE 9.7 mph 9.7 mph 81 % 0.0 in 0.0 W/m2 CLR
04:29 2.2 °F -0.6 °F 1024.3 in SSE 9.3 mph 9.3 mph 82 % 0.0 in 0.0 W/m2 CLR
04:30 2.2 °F -0.6 °F 1024.3 in SSE 7.4 mph 7.4 mph 82 % 0.0 in 0.0 W/m2 CLR
04:32 2.2 °F -0.6 °F 1024.6 in SSE 9.7 mph 9.7 mph 82 % 0.0 in 0.0 W/m2 CLR
04:41 2.2 °F -0.4 °F 1024.6 in South 9.7 mph 9.7 mph 83 % 0.0 in 0.0 W/m2 CLR
04:46 2.2 °F -0.4 °F 1024.6 in South 7.4 mph 7.4 mph 83 % 0.0 in 0.0 W/m2 CLR
04:51 2.2 °F -0.6 °F 1024.6 in Calm     82 % 0.0 in 0.0 W/m2 CLR
04:56 2.2 °F -0.7 °F 1024.6 in Calm     81 % 0.0 in 0.0 W/m2 CLR
05:01 2.2 °F -0.7 °F 1024.6 in SSE 8.0 mph 8.0 mph 81 % 0.0 in 0.0 W/m2 CLR
05:06 2.2 °F -0.6 °F 1024.6 in SSE 7.4 mph 7.4 mph 82 % 0.0 in 0.0 W/m2 CLR
05:11 2.2 °F -0.4 °F 1024.6 in SSE 7.4 mph 7.4 mph 83 % 0.0 in 0.0 W/m2 CLR
05:16 1.7 °F -0.9 °F 1024.6 in SSE 7.4 mph 7.4 mph 83 % 0.0 in 0.0 W/m2 CLR
05:21 1.7 °F -0.7 °F 1024.9 in Calm     84 % 0.0 in 0.0 W/m2 CLR
05:26 1.7 °F -0.7 °F 1024.9 in Calm     84 % 0.0 in 0.0 W/m2 CLR
05:31 1.7 °F -0.7 °F 1024.9 in Calm     84 % 0.0 in 0.0 W/m2 CLR
05:36 1.7 °F -0.7 °F 1024.9 in Calm     84 % 0.0 in 0.0 W/m2 CLR
05:41 1.7 °F -0.7 °F 1024.9 in Calm     84 % 0.0 in 0.0 W/m2 CLR
05:46 1.7 °F -0.7 °F 1024.9 in Calm     84 % 0.0 in 0.0 W/m2 CLR
05:51 1.7 °F -0.7 °F 1024.9 in Calm     84 % 0.0 in 0.0 W/m2 CLR
05:56 1.7 °F -0.7 °F 1024.9 in Calm     84 % 0.0 in 0.0 W/m2 CLR
06:01 1.7 °F -0.6 °F 1024.9 in Calm     85 % 0.0 in 0.0 W/m2 CLR
06:06 1.1 °F -1.1 °F 1024.9 in Calm     85 % 0.0 in 0.0 W/m2 CLR
06:11 1.1 °F -1.1 °F 1024.9 in Calm     85 % 0.0 in 0.0 W/m2 CLR
06:22 1.1 °F -1.1 °F 1024.9 in Calm     85 % 0.0 in 0.0 W/m2 CLR
06:32 1.1 °F -1.1 °F 1024.9 in Calm     85 % 0.0 in 0.0 W/m2 CLR
06:37 1.1 °F -0.9 °F 1024.9 in Calm     86 % 0.0 in 0.0 W/m2 CLR
06:42 1.1 °F -0.9 °F 1024.9 in Calm     86 % 0.0 in 0.0 W/m2 CLR
06:47 1.1 °F -0.9 °F 1024.9 in Calm     86 % 0.0 in 0.0 W/m2 CLR
06:52 1.1 °F -0.9 °F 1024.9 in Calm     86 % 0.0 in 0.0 W/m2 CLR
06:57 1.1 °F -0.9 °F 1024.9 in Calm     86 % 0.0 in 0.0 W/m2 CLR
07:02 1.1 °F -0.9 °F 1024.9 in Calm     86 % 0.0 in 0.0 W/m2 CLR
07:07 1.1 °F -0.9 °F 1025.3 in Calm     86 % 0.0 in 0.0 W/m2 CLR
07:12 1.1 °F -0.8 °F 1025.3 in Calm     87 % 0.0 in 0.0 W/m2 CLR
07:17 1.1 °F -0.9 °F 1025.3 in Calm     86 % 0.0 in 0.0 W/m2 CLR
07:22 1.1 °F -0.9 °F 1025.3 in Calm     86 % 0.0 in 0.0 W/m2 OVC
07:27 1.1 °F -0.9 °F 1025.3 in Calm     86 % 0.0 in 0.0 W/m2 OVC
07:32 1.1 °F -0.9 °F 1025.3 in Calm     86 % 0.0 in 5.0 W/m2 OVC
07:37 1.7 °F -0.4 °F 1025.6 in Calm     86 % 0.0 in 9.0 W/m2 OVC
07:42 1.7 °F -0.4 °F 1025.3 in Calm     86 % 0.0 in 12.0 W/m2 OVC
07:47 1.7 °F -0.4 °F 1025.3 in Calm     86 % 0.0 in 14.0 W/m2 OVC
07:52 1.7 °F -0.4 °F 1025.3 in Calm     86 % 0.0 in 18.0 W/m2 OVC
07:57 1.7 °F -0.4 °F 1025.6 in Calm     86 % 0.0 in 23.0 W/m2 OVC
08:02 1.7 °F -0.4 °F 1025.3 in Calm     86 % 0.0 in 32.0 W/m2 OVC
08:07 1.7 °F -0.6 °F 1025.6 in ESE 1.6 mph   85 % 0.0 in 37.0 W/m2 OVC
08:12 2.2 °F -0.1 °F 1025.6 in Calm     85 % 0.0 in 46.0 W/m2 OVC
08:17 2.2 °F -0.1 °F 1026.0 in Calm     85 % 0.0 in 53.0 W/m2 OVC
08:22 2.8 °F 0.5 °F 1026.0 in Calm     85 % 0.0 in 69.0 W/m2 OVC
08:27 2.8 °F 0.2 °F 1026.0 in Calm     83 % 0.0 in 81.0 W/m2 OVC
08:32 3.3 °F 0.7 °F 1026.0 in Calm     83 % 0.0 in 77.0 W/m2 BKN
08:37 3.9 °F 1.1 °F 1026.0 in Calm     82 % 0.0 in 111.0 W/m2 FEW
08:47 3.9 °F 0.8 °F 1026.3 in Calm     80 % 0.0 in 139.0 W/m2 CLR
08:52 4.4 °F 0.9 °F 1026.3 in Calm     78 % 0.0 in 163.0 W/m2 CLR
08:57 4.4 °F 0.8 °F 1026.3 in Calm     77 % 0.0 in 153.0 W/m2 CLR
09:02 4.4 °F 0.6 °F 1026.3 in Calm     76 % 0.0 in 199.0 W/m2 CLR
09:07 4.4 °F 0.4 °F 1026.3 in Calm     75 % 0.0 in 213.0 W/m2 CLR
09:12 5.0 °F 0.9 °F 1026.3 in Calm     75 % 0.0 in 227.0 W/m2 CLR
09:17 5.6 °F 1.3 °F 1026.3 in Calm     74 % 0.0 in 241.0 W/m2 CLR
09:22 5.6 °F 0.9 °F 1026.6 in Calm     72 % 0.0 in 260.0 W/m2 CLR
09:27 6.1 °F 1.4 °F 1026.6 in Calm     72 % 0.0 in 272.0 W/m2 CLR
09:32 7.2 °F 2.5 °F 1026.6 in Calm     72 % 0.0 in 285.0 W/m2 CLR
09:37 8.3 °F 3.2 °F 1026.6 in Calm     70 % 0.0 in 297.0 W/m2 CLR
09:42 8.3 °F 3.0 °F 1026.6 in Calm     69 % 0.0 in 311.0 W/m2 CLR
09:48 8.3 °F 2.8 °F 1026.6 in Calm     68 % 0.0 in 323.0 W/m2 CLR
09:53 8.9 °F 3.1 °F 1026.6 in Calm     67 % 0.0 in 334.0 W/m2 CLR
09:58 9.4 °F 3.4 °F 1026.6 in Calm     66 % 0.0 in 345.0 W/m2 CLR
10:03 10.0 °F 3.7 °F 1026.6 in Calm   0.2 mph 65 % 0.0 in 353.0 W/m2 CLR
10:08 10.0 °F 3.3 °F 1026.6 in Calm     63 % 0.0 in 160.0 W/m2 CLR
10:18 11.1 °F 3.9 °F 1027.0 in South 3.7 mph 3.7 mph 61 % 0.0 in 387.0 W/m2 CLR
10:23 11.1 °F 4.1 °F 1026.6 in Calm     62 % 0.0 in 399.0 W/m2 CLR
10:28 11.7 °F 4.4 °F 1027.0 in WSW 3.7 mph 3.7 mph 61 % 0.0 in 411.0 W/m2 CLR
10:33 11.7 °F 4.4 °F 1026.6 in West 3.7 mph 3.7 mph 61 % 0.0 in 422.0 W/m2 CLR
10:38 11.7 °F 4.4 °F 1026.6 in WSW 9.3 mph 9.3 mph 61 % 0.0 in 429.0 W/m2 CLR
10:40 11.7 °F 4.2 °F 1026.6 in West 5.6 mph 5.6 mph 60 % 0.0 in 434.0 W/m2 CLR
10:45 12.2 °F 4.7 °F 1026.6 in Calm     60 % 0.0 in 445.0 W/m2 CLR
10:46 12.2 °F 4.7 °F 1026.6 in Calm     60 % 0.0 in 446.0 W/m2 CLR
10:51 12.8 °F 5.2 °F 1026.6 in Calm     60 % 0.0 in 457.0 W/m2 CLR
10:56 12.8 °F 4.7 °F 1026.6 in Calm     58 % 0.0 in 466.0 W/m2 CLR
11:01 12.8 °F 4.9 °F 1026.3 in Calm     59 % 0.0 in 473.0 W/m2 CLR
11:06 12.8 °F 4.7 °F 1026.3 in Calm     58 % 0.0 in 476.0 W/m2 CLR
11:11 12.8 °F 4.7 °F 1026.3 in WSW 1.9 mph 1.9 mph 58 % 0.0 in 489.0 W/m2 CLR
11:16 12.8 °F 4.4 °F 1026.3 in Calm     57 % 0.0 in 496.0 W/m2 CLR
11:21 13.3 °F 5.0 °F 1026.3 in Calm     57 % 0.0 in 501.0 W/m2 CLR
11:26 12.8 °F 4.4 °F 1026.3 in Calm     57 % 0.0 in 508.0 W/m2 CLR
11:31 13.3 °F 4.7 °F 1026.3 in WNW 5.6 mph 5.6 mph 56 % 0.0 in 515.0 W/m2 CLR
11:36 13.9 °F 5.0 °F 1026.3 in Calm     55 % 0.0 in 520.0 W/m2 CLR
11:41 13.9 °F 5.0 °F 1026.3 in SW 3.7 mph 3.7 mph 55 % 0.0 in 520.0 W/m2 CLR
11:46 13.3 °F 4.2 °F 1026.0 in Calm     54 % 0.0 in 526.0 W/m2 CLR
11:51 13.9 °F 4.7 °F 1026.0 in Calm     54 % 0.0 in 529.0 W/m2 CLR
11:56 13.9 °F 4.2 °F 1025.6 in Calm     52 % 0.0 in 534.0 W/m2 CLR
12:01 14.4 °F 4.4 °F 1025.6 in Calm     51 % 0.0 in 538.0 W/m2 CLR
12:06 14.4 °F 4.4 °F 1025.6 in Calm     51 % 0.0 in 545.0 W/m2 CLR
12:11 14.4 °F 4.4 °F 1025.6 in NW 5.6 mph 5.6 mph 51 % 0.0 in 545.0 W/m2 CLR
12:16 14.4 °F 4.2 °F 1025.3 in NW 4.8 mph 4.8 mph 50 % 0.0 in 548.0 W/m2 CLR
12:21 15.0 °F 4.9 °F 1025.3 in Calm     51 % 0.0 in 550.0 W/m2 CLR
12:26 15.0 °F 4.9 °F 1025.3 in North 5.6 mph 5.6 mph 51 % 0.0 in 555.0 W/m2 CLR
12:31 15.6 °F 5.7 °F 1025.3 in Calm     52 % 0.0 in 557.0 W/m2 CLR
12:36 15.0 °F 5.2 °F 1025.3 in Calm     52 % 0.0 in 555.0 W/m2 CLR
12:41 15.0 °F 5.2 °F 1025.3 in NW 3.7 mph   52 % 0.0 in 555.0 W/m2 CLR
12:46 15.0 °F 4.7 °F 1024.9 in NNW 3.7 mph 3.7 mph 50 % 0.0 in 555.0 W/m2 CLR
12:51 15.6 °F 5.2 °F 1024.9 in North 3.7 mph 3.7 mph 50 % 0.0 in 555.0 W/m2 CLR
12:56 15.6 °F 5.2 °F 1024.9 in NNW 5.6 mph 5.6 mph 50 % 0.0 in 550.0 W/m2 CLR
13:01 15.6 °F 5.2 °F 1024.9 in Calm     50 % 0.0 in 554.0 W/m2 CLR
13:06 15.6 °F 5.4 °F 1024.9 in North 3.7 mph 3.7 mph 51 % 0.0 in 550.0 W/m2 CLR
13:11 15.6 °F 5.4 °F 1024.9 in North 3.7 mph 3.7 mph 51 % 0.0 in 550.0 W/m2 CLR
13:16 15.6 °F 5.4 °F 1024.9 in NNW 5.6 mph 5.6 mph 51 % 0.0 in 547.0 W/m2 CLR
13:21 15.6 °F 5.4 °F 1024.9 in Calm     51 % 0.0 in 545.0 W/m2 CLR
13:26 16.1 °F 5.7 °F 1024.6 in NNW 3.7 mph 3.7 mph 50 % 0.0 in 545.0 W/m2 CLR
13:31 16.1 °F 5.9 °F 1024.6 in Calm     51 % 0.0 in 538.0 W/m2 CLR
13:36 16.1 °F 5.4 °F 1024.6 in North 7.4 mph 7.4 mph 49 % 0.0 in 534.0 W/m2 CLR
13:41 16.7 °F 5.9 °F 1024.6 in NW 5.6 mph 5.6 mph 49 % 0.0 in 533.0 W/m2 CLR
13:46 16.7 °F 5.9 °F 1024.6 in NW 3.7 mph 3.7 mph 49 % 0.0 in 526.0 W/m2 CLR
13:51 17.2 °F 6.7 °F 1024.6 in Calm   0.6 mph 50 % 0.0 in 522.0 W/m2 CLR
13:52 16.7 °F 6.2 °F 1024.6 in NW 3.7 mph   50 % 0.0 in 520.0 W/m2 CLR
13:57 16.1 °F 5.4 °F 1024.6 in NW 1.9 mph   49 % 0.0 in 519.0 W/m2 CLR
14:02 16.1 °F 5.7 °F 1024.6 in Calm     50 % 0.0 in 510.0 W/m2 CLR
14:07 16.1 °F 5.4 °F 1024.6 in WNW 3.7 mph 3.7 mph 49 % 0.0 in 504.0 W/m2 CLR
14:17 16.7 °F 5.9 °F 1024.3 in NW 5.6 mph 5.6 mph 49 % 0.0 in 492.0 W/m2 CLR
14:22 16.7 °F 5.9 °F 1024.3 in NW 7.4 mph 7.4 mph 49 % 0.0 in 483.0 W/m2 CLR
14:27 16.7 °F 5.9 °F 1024.3 in West 1.6 mph 1.6 mph 49 % 0.0 in 476.0 W/m2 CLR
14:32 16.7 °F 5.9 °F 1024.3 in Calm     49 % 0.0 in 468.0 W/m2 CLR
14:37 16.7 °F 5.9 °F 1024.3 in West 5.6 mph 5.6 mph 49 % 0.0 in 459.0 W/m2 CLR
14:42 17.2 °F 6.1 °F 1024.3 in WNW 5.6 mph 5.6 mph 48 % 0.0 in 452.0 W/m2 CLR
14:47 17.2 °F 6.1 °F 1023.9 in Calm   0.5 mph 48 % 0.0 in 439.0 W/m2 CLR
14:52 17.2 °F 6.1 °F 1023.9 in WNW 14.8 mph 14.8 mph 48 % 0.0 in 431.0 W/m2 CLR
14:57 17.8 °F 6.9 °F 1023.9 in NNW 6.4 mph 6.4 mph 49 % 0.0 in 422.0 W/m2 CLR
15:02 17.8 °F 6.9 °F 1023.9 in NW 12.9 mph 12.9 mph 49 % 0.0 in 411.0 W/m2 CLR
15:07 17.8 °F 6.6 °F 1023.9 in NNW 9.3 mph 9.3 mph 48 % 0.0 in 397.0 W/m2 CLR
15:12 17.8 °F 6.6 °F 1023.9 in North 9.3 mph 9.3 mph 48 % 0.0 in 387.0 W/m2 CLR
15:17 17.8 °F 6.6 °F 1023.9 in NW 9.3 mph 9.3 mph 48 % 0.0 in 378.0 W/m2 CLR
15:22 17.8 °F 6.6 °F 1023.9 in NW 9.3 mph 9.3 mph 48 % 0.0 in 366.0 W/m2 CLR
15:27 17.8 °F 6.6 °F 1023.9 in NNW 9.3 mph 9.3 mph 48 % 0.0 in 355.0 W/m2 CLR
15:32 17.8 °F 6.6 °F 1023.6 in NNW 7.4 mph 7.4 mph 48 % 0.0 in 341.0 W/m2 CLR
15:37 18.3 °F 7.1 °F 1023.6 in NW 13.0 mph 13.0 mph 48 % 0.0 in 330.0 W/m2 CLR
15:42 18.3 °F 7.1 °F 1023.6 in NW 7.4 mph 7.4 mph 48 % 0.0 in 318.0 W/m2 CLR
15:47 18.3 °F 7.1 °F 1023.6 in NW 5.6 mph 5.6 mph 48 % 0.0 in 306.0 W/m2 CLR
15:52 18.3 °F 7.1 °F 1023.6 in NW 5.6 mph 5.6 mph 48 % 0.0 in 292.0 W/m2 CLR
15:58 17.8 °F 6.6 °F 1023.6 in NW 7.4 mph 7.4 mph 48 % 0.0 in 279.0 W/m2 CLR
16:03 18.3 °F 7.1 °F 1023.2 in NW 1.9 mph   48 % 0.0 in 265.0 W/m2 CLR
16:08 18.3 °F 7.1 °F 1023.2 in NNW 13.0 mph 13.0 mph 48 % 0.0 in 255.0 W/m2 CLR
16:13 17.8 °F 6.9 °F 1023.2 in Calm     49 % 0.0 in 236.0 W/m2 CLR
16:18 17.8 °F 6.9 °F 1023.2 in NNW 1.6 mph 1.6 mph 49 % 0.0 in 221.0 W/m2 CLR
16:23 17.8 °F 6.9 °F 1023.2 in NNW 9.3 mph 9.3 mph 49 % 0.0 in 206.0 W/m2 CLR
16:28 17.8 °F 6.9 °F 1023.2 in Calm     49 % 0.0 in 190.0 W/m2 CLR
16:33 17.8 °F 7.2 °F 1023.2 in NW 3.7 mph 3.7 mph 50 % 0.0 in 176.0 W/m2 CLR
16:38 17.8 °F 7.5 °F 1023.2 in NNW 9.3 mph 9.3 mph 51 % 0.0 in 156.0 W/m2 CLR
16:43 17.8 °F 7.8 °F 1023.2 in NNW 5.6 mph 5.6 mph 52 % 0.0 in 142.0 W/m2 CLR
16:48 17.8 °F 8.3 °F 1023.2 in North 4.8 mph 4.8 mph 54 % 0.0 in 127.0 W/m2 CLR
16:53 17.8 °F 8.3 °F 1023.2 in North 5.6 mph 5.6 mph 54 % 0.0 in 111.0 W/m2 CLR
16:58 17.2 °F 7.8 °F 1023.2 in North 3.7 mph 3.7 mph 54 % 0.0 in 95.0 W/m2 CLR
17:03 17.2 °F 8.1 °F 1023.2 in NNW 7.4 mph 7.4 mph 55 % 0.0 in 83.0 W/m2 FEW
17:08 17.2 °F 8.4 °F 1023.2 in Calm     56 % 0.0 in 63.0 W/m2 SCT
17:13 16.7 °F 7.8 °F 1023.2 in Calm     56 % 0.0 in 56.0 W/m2 SCT
17:18 16.7 °F 8.1 °F 1023.6 in Calm     57 % 0.0 in 44.0 W/m2 SCT
17:23 16.1 °F 7.8 °F 1023.6 in NNW 5.6 mph 5.6 mph 58 % 0.0 in 35.0 W/m2 BKN
17:28 16.1 °F 8.1 °F 1023.2 in North 9.3 mph 9.3 mph 59 % 0.0 in 26.0 W/m2 BKN
17:33 15.6 °F 7.8 °F 1023.6 in Calm     60 % 0.0 in 21.0 W/m2 BKN
17:38 15.0 °F 7.6 °F 1023.6 in North 1.9 mph   61 % 0.0 in 16.0 W/m2 BKN
17:43 15.0 °F 7.8 °F 1023.6 in NNE 5.6 mph 5.6 mph 62 % 0.0 in 12.0 W/m2 BKN
17:48 14.4 °F 7.5 °F 1023.6 in NE 9.3 mph 9.3 mph 63 % 0.0 in 9.0 W/m2 BKN
17:53 14.4 °F 7.7 °F 1023.6 in NNE 8.0 mph 8.0 mph 64 % 0.0 in 7.0 W/m2 BKN
17:58 13.9 °F 7.4 °F 1023.6 in NNE 3.7 mph   65 % 0.0 in 0.0 W/m2 OVC
18:03 13.9 °F 7.6 °F 1023.9 in NNE 1.9 mph   66 % 0.0 in 0.0 W/m2 CLR
18:08 13.3 °F 7.1 °F 1023.9 in Calm     66 % 0.0 in 0.0 W/m2 CLR
18:13 12.8 °F 6.6 °F 1023.9 in Calm     66 % 0.0 in 0.0 W/m2 CLR
18:18 12.2 °F 6.5 °F 1023.9 in ENE 7.4 mph 7.4 mph 68 % 0.0 in 0.0 W/m2 CLR
18:23 11.7 °F 5.9 °F 1023.9 in NE 5.6 mph 5.6 mph 68 % 0.0 in 0.0 W/m2 CLR
18:28 11.7 °F 6.2 °F 1023.9 in NE 5.6 mph 5.6 mph 69 % 0.0 in 0.0 W/m2 CLR
18:33 11.7 °F 6.4 °F 1024.3 in ENE 8.0 mph 8.0 mph 70 % 0.0 in 0.0 W/m2 CLR
18:38 11.7 °F 6.6 °F 1024.3 in NE 9.3 mph 9.3 mph 71 % 0.0 in 0.0 W/m2 CLR
18:43 11.7 °F 6.6 °F 1024.3 in NE 5.6 mph 5.6 mph 71 % 0.0 in 0.0 W/m2 CLR
18:48 11.7 °F 6.6 °F 1024.3 in Calm     71 % 0.0 in 0.0 W/m2 CLR
18:53 11.7 °F 6.8 °F 1024.3 in Calm     72 % 0.0 in 0.0 W/m2 CLR
18:58 11.7 °F 6.8 °F 1024.6 in Calm     72 % 0.0 in 0.0 W/m2 CLR
19:03 11.7 °F 7.0 °F 1024.3 in Calm     73 % 0.0 in 0.0 W/m2 CLR
19:08 11.1 °F 6.4 °F 1024.6 in Calm     73 % 0.0 in 0.0 W/m2 CLR
19:13 11.1 °F 6.7 °F 1024.6 in ENE 5.6 mph 5.6 mph 74 % 0.0 in 0.0 W/m2 CLR
19:18 11.1 °F 6.4 °F 1024.6 in East 5.6 mph 5.6 mph 73 % 0.0 in 0.0 W/m2 CLR
19:23 10.6 °F 5.9 °F 1024.6 in ENE 11.1 mph 11.1 mph 73 % 0.0 in 0.0 W/m2 CLR
19:28 10.6 °F 5.9 °F 1024.6 in Calm     73 % 0.0 in 0.0 W/m2 CLR
19:33 10.0 °F 5.2 °F 1024.6 in Calm     72 % 0.0 in 0.0 W/m2 CLR
19:38 10.0 °F 5.2 °F 1024.6 in Calm     72 % 0.0 in 0.0 W/m2 CLR
19:43 9.4 °F 4.8 °F 1024.6 in Calm     73 % 0.0 in 0.0 W/m2 CLR
19:48 9.4 °F 4.8 °F 1024.6 in Calm     73 % 0.0 in 0.0 W/m2 CLR
19:53 9.4 °F 5.1 °F 1024.6 in Calm     74 % 0.0 in 0.0 W/m2 CLR
19:58 8.9 °F 4.7 °F 1024.6 in Calm     75 % 0.0 in 0.0 W/m2 CLR
20:03 8.9 °F 4.7 °F 1024.6 in Calm     75 % 0.0 in 0.0 W/m2 CLR
20:08 8.9 °F 4.7 °F 1024.6 in Calm     75 % 0.0 in 0.0 W/m2 CLR
20:13 8.3 °F 4.3 °F 1024.9 in Calm     76 % 0.0 in 0.0 W/m2 CLR
20:18 8.3 °F 4.2 °F 1024.9 in Calm     75 % 0.0 in 0.0 W/m2 CLR
20:23 8.3 °F 4.2 °F 1024.9 in Calm     75 % 0.0 in 0.0 W/m2 CLR
20:28 8.3 °F 4.2 °F 1024.9 in Calm     75 % 0.0 in 0.0 W/m2 CLR
20:33 8.3 °F 4.2 °F 1024.9 in Calm     75 % 0.0 in 0.0 W/m2 CLR
20:38 8.3 °F 4.3 °F 1024.9 in Calm     76 % 0.0 in 0.0 W/m2 CLR
20:43 8.3 °F 4.3 °F 1024.9 in Calm     76 % 0.0 in 0.0 W/m2 CLR
20:48 8.3 °F 4.3 °F 1024.9 in Calm     76 % 0.0 in 0.0 W/m2 CLR
20:53 8.3 °F 4.6 °F 1024.9 in Calm     77 % 0.0 in 0.0 W/m2 CLR
20:58 8.9 °F 5.4 °F 1024.9 in Calm     79 % 0.0 in 0.0 W/m2 CLR
21:03 8.9 °F 5.4 °F 1025.3 in Calm     79 % 0.0 in 0.0 W/m2 CLR
21:08 8.9 °F 5.3 °F 1025.3 in Calm     78 % 0.0 in 0.0 W/m2 CLR
21:13 8.9 °F 5.1 °F 1025.3 in Calm     77 % 0.0 in 0.0 W/m2 CLR
21:18 8.9 °F 5.3 °F 1025.3 in Calm     78 % 0.0 in 0.0 W/m2 CLR
21:23 8.9 °F 5.4 °F 1025.3 in Calm     79 % 0.0 in 0.0 W/m2 CLR
21:29 8.3 °F 5.1 °F 1025.3 in Calm     80 % 0.0 in 0.0 W/m2 CLR
21:33 8.3 °F 5.1 °F 1025.3 in Calm     80 % 0.0 in 0.0 W/m2 CLR
21:38 8.3 °F 5.3 °F 1025.3 in Calm     81 % 0.0 in 0.0 W/m2 CLR
21:44 8.3 °F 5.3 °F 1025.3 in Calm     81 % 0.0 in 0.0 W/m2 CLR
21:49 8.3 °F 5.1 °F 1025.3 in Calm     80 % 0.0 in 0.0 W/m2 CLR
21:54 7.8 °F 4.6 °F 1025.3 in Calm     80 % 0.0 in 0.0 W/m2 CLR
21:59 7.8 °F 4.6 °F 1025.3 in Calm     80 % 0.0 in 0.0 W/m2 CLR
22:04 7.8 °F 4.6 °F 1025.6 in Calm     80 % 0.0 in 0.0 W/m2 CLR
22:09 7.8 °F 4.6 °F 1025.6 in Calm     80 % 0.0 in 0.0 W/m2 CLR
22:14 7.2 °F 4.2 °F 1025.6 in Calm     81 % 0.0 in 0.0 W/m2 CLR
22:19 7.2 °F 4.2 °F 1025.6 in Calm     81 % 0.0 in 0.0 W/m2 CLR
22:24 6.7 °F 3.6 °F 1025.6 in Calm     81 % 0.0 in 0.0 W/m2 CLR
22:29 6.7 °F 3.8 °F 1025.6 in Calm     82 % 0.0 in 0.0 W/m2 CLR
22:34 6.7 °F 3.8 °F 1025.6 in Calm     82 % 0.0 in 0.0 W/m2 CLR
22:39 6.7 °F 3.8 °F 1025.6 in Calm     82 % 0.0 in 0.0 W/m2 CLR
22:44 6.7 °F 3.8 °F 1025.6 in Calm     82 % 0.0 in 0.0 W/m2 CLR
22:49 6.7 °F 3.8 °F 1025.6 in Calm     82 % 0.0 in 0.0 W/m2 CLR
22:54 6.7 °F 4.0 °F 1025.6 in Calm     83 % 0.0 in 0.0 W/m2 CLR
22:59 6.7 °F 4.0 °F 1025.6 in Calm     83 % 0.0 in 0.0 W/m2 CLR
23:04 6.1 °F 3.4 °F 1025.6 in Calm     83 % 0.0 in 0.0 W/m2 CLR
23:09 6.1 °F 3.4 °F 1025.6 in Calm     83 % 0.0 in 0.0 W/m2 CLR
23:14 6.1 °F 3.6 °F 1025.6 in Calm     84 % 0.0 in 0.0 W/m2 CLR
23:19 6.1 °F 3.6 °F 1025.6 in Calm     84 % 0.0 in 0.0 W/m2 CLR
23:24 6.1 °F 3.6 °F 1025.6 in Calm     84 % 0.0 in 0.0 W/m2 CLR
23:29 5.6 °F 3.2 °F 1025.6 in Calm     85 % 0.0 in 0.0 W/m2 CLR
23:34 5.6 °F 3.1 °F 1025.6 in Calm     84 % 0.0 in 0.0 W/m2 CLR
23:39 5.6 °F 3.1 °F 1025.6 in Calm     84 % 0.0 in 0.0 W/m2 CLR
23:44 5.6 °F 3.1 °F 1025.6 in Calm     84 % 0.0 in 0.0 W/m2 CLR
23:49 5.6 °F 3.2 °F 1025.6 in Calm     85 % 0.0 in 0.0 W/m2 CLR
23:54 5.6 °F 3.1 °F 1025.6 in Calm     84 % 0.0 in 0.0 W/m2 CLR
23:59 5.6 °F 3.2 °F 1025.6 in Calm     85 % 0.0 in 0.0 W/m2 CLR
Lo Temps de Massalio
Compliments of Weather Underground - 1.25 mb